Time;durP1;ratioP1;P1;durP2;ratioP2;P2;SDS_P1;SDS_P2;PMS_P1;PMS_P2;Temp;Humidity;BMP_temperature;BMP_pressure;BME280_temperature;BME280_humidity;BME280_pressure;Samples;Min_cycle;Max_cycle;Signal;HPM_P1;HPM_P2
2021/03/05 00:00:35;;;;;;;39.90;18.50;;;;;;;;;;5133955;28;20069;-76
2021/03/05 00:03:01;;;;;;;29.33;16.13;;;;;;;;;;5134086;28;20481;-76
2021/03/05 00:05:26;;;;;;;25.63;14.80;;;;;;;;;;5133527;27;20057;-76
2021/03/05 00:07:52;;;;;;;26.13;15.18;;;;;;;;;;5115424;28;20083;-76
2021/03/05 00:10:23;;;;;;;33.45;16.13;;;;;;;;;;5115419;28;20373;-76
2021/03/05 00:12:49;;;;;;;30.52;15.32;;;;;;;;;;5133527;28;20038;-76
2021/03/05 00:15:14;;;;;;;31.10;16.23;;;;;;;;;;5115372;28;20113;-76
2021/03/05 00:17:40;;;;;;;32.20;16.30;;;;;;;;;;5136873;27;20113;-76
2021/03/05 00:20:10;;;;;;;25.27;15.23;;;;;;;;;;5136801;27;20067;-76
2021/03/05 00:22:35;;;;;;;24.45;13.05;;;;;;;;;;5137568;27;20473;-76
2021/03/05 00:25:01;;;;;;;22.85;12.00;;;;;;;;;;5136932;27;20126;-76
2021/03/05 00:27:27;;;;;;;20.48;10.82;;;;;;;;;;5118661;27;20058;-76
2021/03/05 00:29:53;;;;;;;18.70;11.15;;;;;;;;;;5137312;27;20050;-76
2021/03/05 00:32:18;;;;;;;20.58;10.20;;;;;;;;;;5137391;27;20023;-76
2021/03/05 00:34:43;;;;;;;17.05;10.25;;;;;;;;;;5137126;27;20035;-76
2021/03/05 00:37:09;;;;;;;15.60;9.70;;;;;;;;;;5137046;27;20168;-76
2021/03/05 00:39:34;;;;;;;15.65;8.18;;;;;;;;;;5137062;27;20027;-76
2021/03/05 00:42:00;;;;;;;11.63;7.50;;;;;;;;;;5136991;27;20034;-76
2021/03/05 00:44:25;;;;;;;11.82;7.63;;;;;;;;;;5136888;27;20054;-76
2021/03/05 00:46:50;;;;;;;10.45;6.55;;;;;;;;;;5136969;27;20412;-76
2021/03/05 00:49:16;;;;;;;11.10;6.47;;;;;;;;;;5136137;27;20477;-76
2021/03/05 00:51:41;;;;;;;10.98;7.00;;;;;;;;;;5136812;27;20358;-76
2021/03/05 00:54:07;;;;;;;9.05;6.60;;;;;;;;;;5118202;27;20027;-76
2021/03/05 00:56:33;;;;;;;12.75;6.82;;;;;;;;;;5118040;27;20031;-76
2021/03/05 00:58:59;;;;;;;12.68;6.28;;;;;;;;;;5136746;27;20401;-76
2021/03/05 01:01:29;;;;;;;9.13;6.38;;;;;;;;;;5118241;27;20076;-76
2021/03/05 01:03:54;;;;;;;9.70;6.40;;;;;;;;;;5136599;27;20047;-76
2021/03/05 01:06:28;;;;;;;10.18;6.65;;;;;;;;;;5136298;27;20052;-76
2021/03/05 01:08:59;;;;;;;10.30;6.68;;;;;;;;;;5117614;27;20042;-76
2021/03/05 01:11:24;;;;;;;9.70;6.38;;;;;;;;;;5118015;27;20391;-76
2021/03/05 01:13:50;;;;;;;8.93;6.72;;;;;;;;;;5136411;27;20383;-76
2021/03/05 01:16:15;;;;;;;14.50;8.32;;;;;;;;;;5117690;27;20027;-76
2021/03/05 01:18:41;;;;;;;11.45;8.05;;;;;;;;;;5136338;27;20477;-76
2021/03/05 01:21:07;;;;;;;11.98;8.30;;;;;;;;;;5136329;27;20042;-76
2021/03/05 01:23:32;;;;;;;9.88;7.30;;;;;;;;;;5136021;27;20042;-76
2021/03/05 01:25:58;;;;;;;12.65;7.82;;;;;;;;;;5135373;27;20062;-76
2021/03/05 01:28:24;;;;;;;11.63;7.80;;;;;;;;;;5135582;27;20047;-76
2021/03/05 01:30:49;;;;;;;11.60;8.02;;;;;;;;;;5117407;27;20043;-76
2021/03/05 01:33:15;;;;;;;13.38;8.35;;;;;;;;;;5135661;27;20110;-76
2021/03/05 01:35:41;;;;;;;12.93;8.80;;;;;;;;;;5117544;27;20057;-76
2021/03/05 01:38:07;;;;;;;16.35;10.07;;;;;;;;;;5135600;27;20031;-76
2021/03/05 01:40:36;;;;;;;13.55;9.80;;;;;;;;;;5135854;27;20607;-76
2021/03/05 01:43:05;;;;;;;18.23;11.80;;;;;;;;;;5135618;27;20038;-77
2021/03/05 01:45:31;;;;;;;14.60;11.20;;;;;;;;;;5135743;27;20547;-76
2021/03/05 01:48:04;;;;;;;17.88;12.52;;;;;;;;;;5117385;27;20141;-76
2021/03/05 01:50:35;;;;;;;19.52;11.57;;;;;;;;;;5135465;27;20035;-76
2021/03/05 01:53:05;;;;;;;15.32;11.23;;;;;;;;;;5135330;27;20070;-76
2021/03/05 01:55:31;;;;;;;16.17;11.68;;;;;;;;;;5135357;27;20050;-76
2021/03/05 01:57:57;;;;;;;18.27;11.65;;;;;;;;;;5135001;27;20035;-76
2021/03/05 02:00:39;;;;;;;16.48;11.52;;;;;;;;;;5135547;27;20126;-76
2021/03/05 02:03:06;;;;;;;19.40;11.50;;;;;;;;;;5135138;27;20062;-76
2021/03/05 02:05:31;;;;;;;17.27;11.50;;;;;;;;;;5135389;27;20473;-76
2021/03/05 02:07:57;;;;;;;18.35;11.80;;;;;;;;;;5135268;27;20042;-76
2021/03/05 02:10:23;;;;;;;17.63;11.57;;;;;;;;;;5134534;27;20034;-76
2021/03/05 02:12:48;;;;;;;18.88;11.93;;;;;;;;;;5134822;27;20027;-76
2021/03/05 02:15:14;;;;;;;19.25;12.75;;;;;;;;;;5135135;27;20038;-76
2021/03/05 02:17:48;;;;;;;17.13;11.52;;;;;;;;;;5116790;27;20043;-76
2021/03/05 02:20:50;;;;;;;17.00;11.23;;;;;;;;;;5134317;27;20169;-76
2021/03/05 02:23:22;;;;;;;18.40;11.75;;;;;;;;;;5135092;27;20074;-76
2021/03/05 02:26:24;;;;;;;17.65;11.43;;;;;;;;;;5134540;27;20027;-76
2021/03/05 02:29:08;;;;;;;18.13;10.75;;;;;;;;;;5135041;27;20035;-76
2021/03/05 02:32:09;;;;;;;16.73;10.77;;;;;;;;;;5116491;27;20038;-76
2021/03/05 02:34:39;;;;;;;17.15;11.18;;;;;;;;;;5121097;27;20442;-76
2021/03/05 02:37:08;;;;;;;16.20;11.73;;;;;;;;;;5134813;27;20039;-76
2021/03/05 02:39:57;;;;;;;17.02;11.75;;;;;;;;;;5133734;27;20053;-76
2021/03/05 02:42:33;;;;;;;17.02;12.20;;;;;;;;;;5134850;27;20118;-76
2021/03/05 02:45:06;;;;;;;15.30;10.43;;;;;;;;;;5134252;27;20501;-76
2021/03/05 02:47:33;;;;;;;15.18;11.30;;;;;;;;;;5134592;27;20035;-76
2021/03/05 02:50:00;;;;;;;17.10;11.18;;;;;;;;;;5133762;27;20042;-76
2021/03/05 02:52:27;;;;;;;16.48;11.38;;;;;;;;;;5134651;27;20130;-76
2021/03/05 02:54:56;;;;;;;16.10;10.15;;;;;;;;;;5134312;27;20357;-76
2021/03/05 02:57:24;;;;;;;15.18;9.38;;;;;;;;;;5134286;27;20035;-76
2021/03/05 02:59:51;;;;;;;15.32;10.15;;;;;;;;;;5134602;27;20046;-76
2021/03/05 03:02:22;;;;;;;16.10;10.93;;;;;;;;;;5134442;27;20035;-76
2021/03/05 03:04:48;;;;;;;14.38;9.65;;;;;;;;;;5134302;27;20046;-76
2021/03/05 03:07:15;;;;;;;14.13;9.48;;;;;;;;;;5134509;27;20024;-77
2021/03/05 03:09:41;;;;;;;12.60;9.18;;;;;;;;;;5134318;27;20031;-77
2021/03/05 03:12:11;;;;;;;13.15;9.90;;;;;;;;;;5134324;27;20034;-76
2021/03/05 03:14:38;;;;;;;14.10;9.50;;;;;;;;;;5134225;27;20038;-77
2021/03/05 03:17:06;;;;;;;13.52;9.77;;;;;;;;;;5134367;27;20468;-75
2021/03/05 03:19:33;;;;;;;15.82;9.88;;;;;;;;;;5133610;28;20449;-77
2021/03/05 03:22:02;;;;;;;13.88;9.70;;;;;;;;;;5134245;28;20050;-78
2021/03/05 03:24:27;;;;;;;17.25;10.20;;;;;;;;;;5133983;27;20031;-76
2021/03/05 03:26:53;;;;;;;15.57;9.80;;;;;;;;;;5134386;28;20034;-77
2021/03/05 03:29:18;;;;;;;14.15;9.85;;;;;;;;;;5134020;28;20443;-77
2021/03/05 03:31:44;;;;;;;15.98;9.25;;;;;;;;;;5134183;28;20050;-77
2021/03/05 03:34:11;;;;;;;14.85;9.88;;;;;;;;;;5134139;27;20106;-77
2021/03/05 03:36:38;;;;;;;15.60;9.50;;;;;;;;;;5133674;28;20028;-77
2021/03/05 03:39:09;;;;;;;14.68;9.38;;;;;;;;;;5133897;28;20465;-77
2021/03/05 03:41:36;;;;;;;17.50;9.73;;;;;;;;;;5133887;28;20035;-77
2021/03/05 03:44:03;;;;;;;13.85;9.20;;;;;;;;;;5133786;27;20126;-77
2021/03/05 03:46:30;;;;;;;15.90;10.00;;;;;;;;;;5133684;28;20126;-79
2021/03/05 03:49:00;;;;;;;16.75;10.27;;;;;;;;;;5134225;28;20031;-77
2021/03/05 03:51:28;;;;;;;13.32;9.65;;;;;;;;;;5135498;27;20061;-78
2021/03/05 03:53:55;;;;;;;12.80;8.90;;;;;;;;;;5119692;27;21785;-77
2021/03/05 03:56:22;;;;;;;13.77;9.98;;;;;;;;;;5138208;27;20058;-77
2021/03/05 03:58:54;;;;;;;14.15;9.88;;;;;;;;;;5144212;27;20070;-78
2021/03/05 04:01:19;;;;;;;13.57;9.57;;;;;;;;;;5122773;27;20087;-76
2021/03/05 04:03:48;;;;;;;15.70;10.95;;;;;;;;;;5118413;27;20027;-77
2021/03/05 04:06:18;;;;;;;15.77;10.40;;;;;;;;;;5137666;27;20027;-77
2021/03/05 04:08:44;;;;;;;13.23;9.98;;;;;;;;;;5137731;27;20027;-77
2021/03/05 04:11:10;;;;;;;15.57;9.77;;;;;;;;;;5119376;27;20042;-77
2021/03/05 04:13:38;;;;;;;17.13;10.70;;;;;;;;;;5137595;27;20035;-77
2021/03/05 04:16:03;;;;;;;17.10;10.27;;;;;;;;;;5137405;27;20031;-77
2021/03/05 04:18:33;;;;;;;17.13;10.45;;;;;;;;;;5137546;27;20392;-77
2021/03/05 04:21:01;;;;;;;16.92;10.65;;;;;;;;;;5137199;27;20472;-77
2021/03/05 04:23:27;;;;;;;17.75;11.68;;;;;;;;;;5137430;27;20384;-77
2021/03/05 04:25:52;;;;;;;13.55;9.63;;;;;;;;;;5137180;27;20031;-77
2021/03/05 04:28:18;;;;;;;14.90;9.48;;;;;;;;;;5137281;27;20461;-76
2021/03/05 04:30:43;;;;;;;14.57;9.80;;;;;;;;;;5118637;27;20484;-77
2021/03/05 04:33:09;;;;;;;13.23;10.02;;;;;;;;;;5137139;27;20074;-77
2021/03/05 04:35:34;;;;;;;17.60;9.75;;;;;;;;;;5118477;27;20062;-77
2021/03/05 04:37:59;;;;;;;14.23;9.05;;;;;;;;;;5137094;27;20035;-77
2021/03/05 04:40:25;;;;;;;12.75;8.45;;;;;;;;;;5137136;27;20043;-77
2021/03/05 04:42:50;;;;;;;13.70;8.45;;;;;;;;;;5137023;27;20106;-77
2021/03/05 04:45:16;;;;;;;14.55;8.48;;;;;;;;;;5136702;27;20055;-77
2021/03/05 04:47:41;;;;;;;13.77;8.73;;;;;;;;;;5136989;27;20072;-77
2021/03/05 04:50:07;;;;;;;13.98;8.25;;;;;;;;;;5136144;27;20030;-77
2021/03/05 04:52:32;;;;;;;18.05;9.00;;;;;;;;;;5137031;27;20081;-77
2021/03/05 04:54:58;;;;;;;14.70;8.27;;;;;;;;;;5136817;27;20046;-77
2021/03/05 04:57:23;;;;;;;15.02;8.88;;;;;;;;;;5136450;27;20050;-77
2021/03/05 04:59:48;;;;;;;13.98;8.82;;;;;;;;;;5136753;27;20068;-77
2021/03/05 05:02:14;;;;;;;12.38;7.78;;;;;;;;;;5135698;27;20118;-77
2021/03/05 05:04:40;;;;;;;14.10;8.25;;;;;;;;;;5136306;27;20133;-77
2021/03/05 05:07:06;;;;;;;13.13;7.45;;;;;;;;;;5136030;27;20027;-77
2021/03/05 05:09:31;;;;;;;12.63;8.00;;;;;;;;;;5136601;27;20433;-77
2021/03/05 05:11:57;;;;;;;13.73;8.02;;;;;;;;;;5136138;27;20049;-77
2021/03/05 05:14:22;;;;;;;16.52;8.05;;;;;;;;;;5136135;27;20046;-77
2021/03/05 05:16:47;;;;;;;13.85;7.18;;;;;;;;;;5136101;27;20039;-77
2021/03/05 05:19:13;;;;;;;12.68;7.85;;;;;;;;;;5136330;27;20035;-77
2021/03/05 05:21:38;;;;;;;12.30;7.60;;;;;;;;;;5117713;27;20041;-77
2021/03/05 05:24:05;;;;;;;11.30;7.35;;;;;;;;;;5135413;27;20083;-78
2021/03/05 05:26:31;;;;;;;13.02;7.07;;;;;;;;;;5117603;27;20031;-77
2021/03/05 05:28:56;;;;;;;11.88;7.65;;;;;;;;;;5136060;27;20062;-77
2021/03/05 05:31:21;;;;;;;13.23;7.55;;;;;;;;;;5117475;27;20086;-77
2021/03/05 05:33:47;;;;;;;11.27;7.68;;;;;;;;;;5135902;27;20035;-77
2021/03/05 05:36:12;;;;;;;12.38;7.07;;;;;;;;;;5136031;27;20035;-77
2021/03/05 05:38:38;;;;;;;12.38;7.15;;;;;;;;;;5135749;27;20039;-77
2021/03/05 05:41:04;;;;;;;12.05;6.55;;;;;;;;;;5135744;27;20027;-77
2021/03/05 05:43:32;;;;;;;13.90;8.02;;;;;;;;;;5117138;27;20047;-77
2021/03/05 05:46:08;;;;;;;11.48;7.35;;;;;;;;;;5117056;27;20035;-77
2021/03/05 05:48:38;;;;;;;12.98;8.05;;;;;;;;;;5135724;27;20058;-77
2021/03/05 05:51:13;;;;;;;10.98;7.72;;;;;;;;;;5115602;27;20129;-77
2021/03/05 05:53:43;;;;;;;13.97;7.43;;;;;;;;;;5135638;27;20110;-77
2021/03/05 05:56:09;;;;;;;13.25;7.78;;;;;;;;;;5116835;27;20039;-77
2021/03/05 05:58:34;;;;;;;12.82;7.72;;;;;;;;;;5135379;27;20035;-77
2021/03/05 06:01:00;;;;;;;10.60;6.80;;;;;;;;;;5135434;27;20027;-77
2021/03/05 06:03:28;;;;;;;15.70;7.70;;;;;;;;;;5116890;27;20035;-78
2021/03/05 06:05:55;;;;;;;9.80;6.18;;;;;;;;;;5135182;27;20072;-77
2021/03/05 06:08:21;;;;;;;14.38;7.30;;;;;;;;;;5135381;27;20126;-77
2021/03/05 06:10:46;;;;;;;13.70;6.70;;;;;;;;;;5135291;27;20123;-77
2021/03/05 06:13:12;;;;;;;11.90;6.63;;;;;;;;;;5135280;27;20063;-75
2021/03/05 06:15:38;;;;;;;10.57;6.22;;;;;;;;;;5135034;27;20035;-75
2021/03/05 06:18:04;;;;;;;9.63;6.30;;;;;;;;;;5135258;27;20088;-75
2021/03/05 06:20:43;;;;;;;11.52;6.25;;;;;;;;;;5134162;27;20035;-75
2021/03/05 06:23:12;;;;;;;12.43;6.68;;;;;;;;;;5117070;27;20050;-75
2021/03/05 06:25:37;;;;;;;11.70;6.63;;;;;;;;;;5134982;27;20031;-75
2021/03/05 06:28:17;;;;;;;12.50;6.75;;;;;;;;;;5116596;27;20034;-74
2021/03/05 06:30:44;;;;;;;11.30;6.63;;;;;;;;;;5134934;27;20031;-75
2021/03/05 06:33:21;;;;;;;11.35;5.75;;;;;;;;;;5134687;27;20042;-75
2021/03/05 06:35:46;;;;;;;7.45;5.22;;;;;;;;;;5134792;27;20043;-76
2021/03/05 06:38:38;;;;;;;10.52;5.70;;;;;;;;;;5135088;27;20019;-76
2021/03/05 06:41:25;;;;;;;9.07;5.55;;;;;;;;;;5135030;27;20031;-75
2021/03/05 06:43:59;;;;;;;10.05;6.47;;;;;;;;;;5115764;27;20043;-75
2021/03/05 06:46:38;;;;;;;10.32;5.47;;;;;;;;;;5134640;27;20365;-76
2021/03/05 06:49:14;;;;;;;9.95;6.15;;;;;;;;;;5133915;27;20035;-76
2021/03/05 06:51:40;;;;;;;8.52;5.28;;;;;;;;;;5134774;27;20042;-76
2021/03/05 06:54:09;;;;;;;9.75;5.68;;;;;;;;;;5134408;27;20039;-76
2021/03/05 06:56:36;;;;;;;11.40;5.57;;;;;;;;;;5134506;27;20027;-76
2021/03/05 06:59:07;;;;;;;7.95;5.07;;;;;;;;;;5134464;27;20524;-76
2021/03/05 07:01:43;;;;;;;7.40;5.03;;;;;;;;;;5134600;27;20027;-76
2021/03/05 07:04:10;;;;;;;8.20;4.78;;;;;;;;;;5134417;27;20031;-76
2021/03/05 07:06:36;;;;;;;9.88;5.10;;;;;;;;;;5133658;27;20056;-76
2021/03/05 07:09:04;;;;;;;8.77;4.65;;;;;;;;;;5116150;28;20103;-76
2021/03/05 07:11:34;;;;;;;9.00;4.50;;;;;;;;;;5134347;27;20118;-76
2021/03/05 07:14:00;;;;;;;6.80;4.18;;;;;;;;;;5135497;27;20121;-76
2021/03/05 07:16:26;;;;;;;6.95;4.63;;;;;;;;;;5124029;27;20465;-77
2021/03/05 07:18:51;;;;;;;7.32;4.18;;;;;;;;;;5125480;27;20032;-76
2021/03/05 07:21:19;;;;;;;7.45;4.32;;;;;;;;;;5125810;28;20076;-77
2021/03/05 07:23:46;;;;;;;7.80;4.45;;;;;;;;;;5115721;28;20042;-78
2021/03/05 07:26:12;;;;;;;8.32;4.15;;;;;;;;;;5135243;27;20110;-76
2021/03/05 07:28:43;;;;;;;6.18;3.75;;;;;;;;;;5138813;27;20449;-78
2021/03/05 07:31:09;;;;;;;5.90;4.10;;;;;;;;;;5139016;27;20035;-78
2021/03/05 07:33:38;;;;;;;7.75;4.47;;;;;;;;;;5138606;27;20126;-78
2021/03/05 07:36:09;;;;;;;11.55;3.75;;;;;;;;;;5138931;27;20039;-78
2021/03/05 07:38:39;;;;;;;6.65;3.60;;;;;;;;;;5127893;27;20027;-77
2021/03/05 07:41:06;;;;;;;6.97;3.70;;;;;;;;;;5107814;27;20046;-75
2021/03/05 07:43:32;;;;;;;8.43;3.95;;;;;;;;;;5126062;27;20043;-75
2021/03/05 07:45:58;;;;;;;5.55;3.72;;;;;;;;;;5127599;27;20050;-76
2021/03/05 07:48:23;;;;;;;5.25;3.72;;;;;;;;;;5125448;27;20481;-76
2021/03/05 07:50:50;;;;;;;4.75;3.28;;;;;;;;;;5118115;27;20499;-73
2021/03/05 07:53:15;;;;;;;6.68;3.85;;;;;;;;;;5137711;27;20046;-72
2021/03/05 07:55:43;;;;;;;8.68;3.50;;;;;;;;;;5137904;27;20130;-74
2021/03/05 07:58:09;;;;;;;8.48;3.88;;;;;;;;;;5137820;27;20039;-75
2021/03/05 08:00:47;;;;;;;8.05;4.00;;;;;;;;;;5127894;27;20419;-76
2021/03/05 08:03:14;;;;;;;5.15;3.00;;;;;;;;;;5131013;27;20408;-74
2021/03/05 08:05:42;;;;;;;6.85;3.95;;;;;;;;;;5126008;27;20027;-75
2021/03/05 08:08:09;;;;;;;9.85;3.58;;;;;;;;;;5116872;28;20474;-73
2021/03/05 08:10:40;;;;;;;6.05;3.80;;;;;;;;;;5123837;27;20026;-76
2021/03/05 08:13:31;;;;;;;5.53;3.60;;;;;;;;;;5119282;27;20113;-76
2021/03/05 08:16:31;;;;;;;7.65;4.15;;;;;;;;;;5136869;27;20023;-76
2021/03/05 08:19:06;;;;;;;6.63;3.72;;;;;;;;;;5125219;27;20118;-76
2021/03/05 08:21:50;;;;;;;10.18;4.05;;;;;;;;;;5135458;27;20395;-77
2021/03/05 08:24:29;;;;;;;7.05;4.03;;;;;;;;;;5116582;28;20119;-77
2021/03/05 08:27:11;;;;;;;6.57;3.75;;;;;;;;;;5116582;28;20031;-77
2021/03/05 08:29:56;;;;;;;8.15;4.40;;;;;;;;;;5116942;28;20032;-77
2021/03/05 08:32:30;;;;;;;6.03;3.78;;;;;;;;;;5116474;28;20048;-77
2021/03/05 08:34:56;;;;;;;7.07;4.10;;;;;;;;;;5116367;28;20032;-74
2021/03/05 08:37:28;;;;;;;7.75;3.95;;;;;;;;;;5116389;28;20685;-73
2021/03/05 08:40:12;;;;;;;9.02;4.35;;;;;;;;;;5116656;28;20089;-74
2021/03/05 08:42:41;;;;;;;7.25;3.85;;;;;;;;;;5116243;28;20042;-73
2021/03/05 08:45:09;;;;;;;6.50;4.20;;;;;;;;;;5115616;28;20067;-72
2021/03/05 08:47:35;;;;;;;8.05;4.25;;;;;;;;;;5116180;28;20036;-73
2021/03/05 08:50:03;;;;;;;14.23;5.68;;;;;;;;;;5123713;27;20377;-72
2021/03/05 08:52:29;;;;;;;8.65;4.18;;;;;;;;;;5136826;27;20035;-73
2021/03/05 08:54:55;;;;;;;8.43;4.97;;;;;;;;;;5118495;27;20065;-73
2021/03/05 08:57:21;;;;;;;6.60;3.63;;;;;;;;;;5118382;27;20038;-75
2021/03/05 08:59:49;;;;;;;11.07;5.57;;;;;;;;;;5136626;27;20035;-75
2021/03/05 09:02:15;;;;;;;7.05;4.22;;;;;;;;;;5136866;27;20027;-76
2021/03/05 09:04:40;;;;;;;4.03;3.22;;;;;;;;;;5118445;27;20038;-75
2021/03/05 09:07:06;;;;;;;7.90;4.30;;;;;;;;;;5118099;27;20031;-76
2021/03/05 09:09:32;;;;;;;9.32;4.57;;;;;;;;;;5136514;27;20066;-74
2021/03/05 09:12:15;;;;;;;8.77;4.40;;;;;;;;;;5118241;27;20039;-75
2021/03/05 09:14:42;;;;;;;6.38;3.90;;;;;;;;;;5136484;27;20165;-75
2021/03/05 09:17:09;;;;;;;7.28;3.92;;;;;;;;;;5136219;27;20031;-76
2021/03/05 09:19:46;;;;;;;6.53;4.00;;;;;;;;;;5135830;27;20050;-75
2021/03/05 09:22:11;;;;;;;5.50;3.67;;;;;;;;;;5118121;27;20448;-75
2021/03/05 09:24:46;;;;;;;9.10;4.57;;;;;;;;;;5117630;27;20031;-75
2021/03/05 09:27:26;;;;;;;7.68;4.03;;;;;;;;;;5136136;27;20038;-75
2021/03/05 09:29:52;;;;;;;6.82;3.63;;;;;;;;;;5136198;27;20131;-76
2021/03/05 09:32:18;;;;;;;7.07;4.53;;;;;;;;;;5117800;27;20035;-75
2021/03/05 09:34:58;;;;;;;9.40;4.18;;;;;;;;;;5136143;27;20046;-75
2021/03/05 09:37:29;;;;;;;9.60;5.82;;;;;;;;;;5135430;27;20035;-75
2021/03/05 09:39:57;;;;;;;6.30;3.78;;;;;;;;;;5136038;27;20039;-76
2021/03/05 09:42:42;;;;;;;11.55;6.03;;;;;;;;;;5136095;27;20061;-75
2021/03/05 09:45:08;;;;;;;12.02;6.97;;;;;;;;;;5135456;27;20384;-76
2021/03/05 09:47:47;;;;;;;7.57;4.13;;;;;;;;;;5135721;27;20031;-75
2021/03/05 09:50:20;;;;;;;8.68;2.78;;;;;;;;;;5135012;27;20043;-74
2021/03/05 09:52:46;;;;;;;4.45;3.08;;;;;;;;;;5135071;27;20059;-75
2021/03/05 09:55:30;;;;;;;3.67;2.20;;;;;;;;;;5135479;27;20123;-75
2021/03/05 09:58:08;;;;;;;3.88;2.30;;;;;;;;;;5135133;27;20023;-76
2021/03/05 10:00:35;;;;;;;9.73;2.55;;;;;;;;;;5116999;27;20031;-75
2021/03/05 10:03:09;;;;;;;4.15;2.22;;;;;;;;;;5117166;27;20027;-75
2021/03/05 10:05:37;;;;;;;3.28;2.05;;;;;;;;;;5134655;27;20043;-75
2021/03/05 10:08:26;;;;;;;7.35;2.40;;;;;;;;;;5135360;27;20389;-75
2021/03/05 10:11:08;;;;;;;5.20;2.40;;;;;;;;;;5135089;27;20110;-75
2021/03/05 10:13:54;;;;;;;4.32;2.35;;;;;;;;;;5135333;27;20048;-75
2021/03/05 10:16:32;;;;;;;6.18;2.47;;;;;;;;;;5135282;27;20517;-75
2021/03/05 10:19:03;;;;;;;4.45;2.22;;;;;;;;;;5134547;27;20035;-75
2021/03/05 10:21:29;;;;;;;8.90;2.17;;;;;;;;;;5134938;27;20054;-75
2021/03/05 10:23:55;;;;;;;3.33;2.08;;;;;;;;;;5116890;27;20027;-75
2021/03/05 10:26:27;;;;;;;4.82;2.70;;;;;;;;;;5116592;27;20090;-77
2021/03/05 10:29:10;;;;;;;10.00;2.75;;;;;;;;;;5135143;27;20035;-76
2021/03/05 10:31:48;;;;;;;5.53;2.42;;;;;;;;;;5134910;27;20111;-77
2021/03/05 10:34:22;;;;;;;6.10;2.05;;;;;;;;;;5135050;27;20043;-77
2021/03/05 10:36:51;;;;;;;4.78;1.98;;;;;;;;;;5134447;27;20039;-77
2021/03/05 10:39:17;;;;;;;7.93;1.92;;;;;;;;;;5134959;27;20038;-76
2021/03/05 10:41:57;;;;;;;6.40;1.75;;;;;;;;;;5134693;27;20035;-73
2021/03/05 10:44:23;;;;;;;8.98;2.38;;;;;;;;;;5112806;28;20501;-72
2021/03/05 10:46:49;;;;;;;9.00;2.78;;;;;;;;;;5114178;28;20080;-72
2021/03/05 10:49:14;;;;;;;15.95;6.05;;;;;;;;;;5112902;28;20034;-75
2021/03/05 10:51:40;;;;;;;8.43;2.40;;;;;;;;;;5114354;28;20366;-74
2021/03/05 10:54:05;;;;;;;7.93;3.30;;;;;;;;;;5113996;28;20405;-75
2021/03/05 10:56:32;;;;;;;6.05;3.20;;;;;;;;;;5112860;28;20130;-74
2021/03/05 10:58:59;;;;;;;5.10;2.30;;;;;;;;;;5113903;28;20031;-74
2021/03/05 11:01:24;;;;;;;10.43;3.92;;;;;;;;;;5112106;28;20080;-75
2021/03/05 11:03:49;;;;;;;4.95;2.13;;;;;;;;;;5113810;28;20031;-75
2021/03/05 11:06:16;;;;;;;3.03;1.80;;;;;;;;;;5112278;28;20036;-74
2021/03/05 11:08:42;;;;;;;6.63;2.92;;;;;;;;;;5113409;28;20078;-76
2021/03/05 11:11:07;;;;;;;2.72;1.45;;;;;;;;;;5113721;28;20079;-76
2021/03/05 11:13:33;;;;;;;3.03;1.40;;;;;;;;;;5112433;28;20028;-75
2021/03/05 11:15:59;;;;;;;3.50;2.00;;;;;;;;;;5113585;28;20038;-74
2021/03/05 11:18:24;;;;;;;8.77;2.28;;;;;;;;;;5113595;28;20104;-74
2021/03/05 11:20:49;;;;;;;3.83;1.83;;;;;;;;;;5112485;28;20036;-74
2021/03/05 11:23:15;;;;;;;3.25;1.75;;;;;;;;;;5112343;28;20057;-74
2021/03/05 11:25:40;;;;;;;2.80;2.20;;;;;;;;;;5112797;28;20150;-77
2021/03/05 11:28:06;;;;;;;2.60;1.30;;;;;;;;;;5113518;28;20028;-72
2021/03/05 11:30:31;;;;;;;6.30;1.85;;;;;;;;;;5113615;28;20051;-75
2021/03/05 11:32:56;;;;;;;3.33;1.75;;;;;;;;;;5113372;28;20024;-75
2021/03/05 11:35:22;;;;;;;3.53;1.30;;;;;;;;;;5095998;28;20036;-75
2021/03/05 11:37:47;;;;;;;8.55;2.13;;;;;;;;;;5093090;28;20470;-74
2021/03/05 11:40:14;;;;;;;8.10;2.40;;;;;;;;;;5091786;28;20109;-74
2021/03/05 11:42:39;;;;;;;9.00;3.80;;;;;;;;;;5091884;28;20470;-74
2021/03/05 11:45:06;;;;;;;8.05;3.60;;;;;;;;;;5109036;28;20173;-73
2021/03/05 11:47:33;;;;;;;3.53;2.13;;;;;;;;;;5095179;28;20023;-73
2021/03/05 11:49:59;;;;;;;4.43;3.15;;;;;;;;;;5113117;28;20126;-73
2021/03/05 11:52:24;;;;;;;3.85;2.38;;;;;;;;;;5123142;28;20110;-72
2021/03/05 11:54:49;;;;;;;1.95;1.38;;;;;;;;;;5113196;28;20039;-73
2021/03/05 11:57:15;;;;;;;5.07;1.90;;;;;;;;;;5113231;28;20067;-72
2021/03/05 11:59:40;;;;;;;4.95;2.35;;;;;;;;;;5113108;28;20052;-72
2021/03/05 12:02:07;;;;;;;2.92;1.98;;;;;;;;;;5113132;28;20062;-72
2021/03/05 12:04:32;;;;;;;5.88;2.45;;;;;;;;;;5113010;28;20039;-74
2021/03/05 12:06:58;;;;;;;3.40;2.15;;;;;;;;;;5113384;28;20047;-75
2021/03/05 12:09:23;;;;;;;2.95;2.25;;;;;;;;;;5094890;28;20047;-76
2021/03/05 12:11:49;;;;;;;6.00;2.63;;;;;;;;;;5095474;28;20360;-75
2021/03/05 12:14:14;;;;;;;12.23;4.75;;;;;;;;;;5116847;28;20457;-75
2021/03/05 12:16:39;;;;;;;12.07;6.20;;;;;;;;;;5098649;28;20080;-75
2021/03/05 12:19:05;;;;;;;2.85;1.92;;;;;;;;;;5100602;27;20235;-75
2021/03/05 12:21:30;;;;;;;16.23;8.48;;;;;;;;;;5119358;27;20039;-75
2021/03/05 12:23:56;;;;;;;13.02;6.57;;;;;;;;;;5137233;27;20046;-75
2021/03/05 12:26:21;;;;;;;11.60;6.18;;;;;;;;;;5137311;27;20041;-75
2021/03/05 12:28:47;;;;;;;11.23;4.13;;;;;;;;;;5137414;27;20362;-75
2021/03/05 12:31:13;;;;;;;7.32;2.72;;;;;;;;;;5137527;27;20046;-75
2021/03/05 12:33:38;;;;;;;40.53;19.85;;;;;;;;;;5137017;27;20050;-75
2021/03/05 12:36:04;;;;;;;7.00;4.07;;;;;;;;;;5137198;27;20030;-75
2021/03/05 12:38:30;;;;;;;15.82;4.50;;;;;;;;;;5137072;27;20065;-75
2021/03/05 12:40:55;;;;;;;11.20;3.67;;;;;;;;;;5137246;27;20042;-75
2021/03/05 12:43:21;;;;;;;8.68;3.03;;;;;;;;;;5137099;27;20114;-75
2021/03/05 12:45:47;;;;;;;12.38;3.13;;;;;;;;;;5137087;27;20039;-75
2021/03/05 12:48:12;;;;;;;26.67;10.65;;;;;;;;;;5136969;27;20051;-75
2021/03/05 12:50:38;;;;;;;8.35;4.25;;;;;;;;;;5136387;27;20045;-75
2021/03/05 12:53:04;;;;;;;5.32;2.25;;;;;;;;;;5136915;27;20114;-75
2021/03/05 12:55:29;;;;;;;5.97;2.30;;;;;;;;;;5136590;27;20072;-75
2021/03/05 12:57:54;;;;;;;4.20;2.00;;;;;;;;;;5136795;27;20039;-75
2021/03/05 13:00:20;;;;;;;7.32;2.97;;;;;;;;;;5118287;27;20039;-75
2021/03/05 13:02:47;;;;;;;6.32;2.17;;;;;;;;;;5135195;27;20050;-75
2021/03/05 13:05:12;;;;;;;6.00;3.13;;;;;;;;;;5115681;27;20127;-75
2021/03/05 13:07:38;;;;;;;3.22;1.85;;;;;;;;;;5136292;27;20076;-75
2021/03/05 13:10:03;;;;;;;10.80;3.25;;;;;;;;;;5136538;27;20035;-75
2021/03/05 13:12:29;;;;;;;8.75;2.33;;;;;;;;;;5136542;27;20031;-75
2021/03/05 13:14:54;;;;;;;3.28;1.77;;;;;;;;;;5136428;27;20031;-75
2021/03/05 13:17:20;;;;;;;4.97;2.33;;;;;;;;;;5135980;27;20035;-75
2021/03/05 13:19:47;;;;;;;3.30;1.80;;;;;;;;;;5136286;27;20118;-75
2021/03/05 13:22:13;;;;;;;6.32;1.80;;;;;;;;;;5136146;27;20045;-75
2021/03/05 13:24:39;;;;;;;4.13;1.48;;;;;;;;;;5133973;27;20042;-75
2021/03/05 13:27:04;;;;;;;2.28;1.40;;;;;;;;;;5133415;27;20047;-75
2021/03/05 13:29:30;;;;;;;2.40;1.23;;;;;;;;;;5134292;27;20097;-75
2021/03/05 13:31:55;;;;;;;3.53;1.50;;;;;;;;;;5135886;27;20063;-75
2021/03/05 13:34:21;;;;;;;16.88;10.45;;;;;;;;;;5135990;27;20028;-75
2021/03/05 13:36:49;;;;;;;10.32;5.97;;;;;;;;;;5117477;27;20431;-75
2021/03/05 13:39:15;;;;;;;5.82;2.88;;;;;;;;;;5116665;27;20035;-75
2021/03/05 13:41:40;;;;;;;2.53;1.50;;;;;;;;;;5135799;27;20026;-75
2021/03/05 13:44:06;;;;;;;5.28;2.42;;;;;;;;;;5135340;27;20438;-75
2021/03/05 13:46:31;;;;;;;11.10;4.80;;;;;;;;;;5135440;27;20035;-75
2021/03/05 13:48:57;;;;;;;5.80;2.70;;;;;;;;;;5135902;27;20060;-75
2021/03/05 13:51:22;;;;;;;7.07;3.70;;;;;;;;;;5116545;27;20041;-75
2021/03/05 13:53:48;;;;;;;3.85;2.58;;;;;;;;;;5135685;27;20042;-75
2021/03/05 13:56:13;;;;;;;4.50;1.67;;;;;;;;;;5135571;27;20051;-75
2021/03/05 13:58:38;;;;;;;6.55;2.85;;;;;;;;;;5135494;27;20039;-75
2021/03/05 14:01:04;;;;;;;5.00;2.10;;;;;;;;;;5135510;27;20103;-75
2021/03/05 14:03:29;;;;;;;6.85;1.70;;;;;;;;;;5117140;27;20039;-75
2021/03/05 14:05:56;;;;;;;5.78;1.85;;;;;;;;;;5117136;27;20031;-75
2021/03/05 14:08:22;;;;;;;2.13;1.33;;;;;;;;;;5135398;27;20037;-75
2021/03/05 14:10:47;;;;;;;7.35;3.00;;;;;;;;;;5135152;27;20400;-75
2021/03/05 14:13:13;;;;;;;2.80;1.58;;;;;;;;;;5116695;27;20034;-75
2021/03/05 14:15:41;;;;;;;4.72;1.55;;;;;;;;;;5135051;27;20064;-75
2021/03/05 14:18:07;;;;;;;1.63;1.42;;;;;;;;;;5135123;27;20125;-75
2021/03/05 14:20:33;;;;;;;4.22;1.40;;;;;;;;;;5134432;27;20122;-75
2021/03/05 14:22:58;;;;;;;2.00;1.52;;;;;;;;;;5116847;27;20046;-75
2021/03/05 14:25:23;;;;;;;3.60;1.80;;;;;;;;;;5135085;27;20042;-75
2021/03/05 14:27:50;;;;;;;3.20;1.52;;;;;;;;;;5135113;27;20109;-75
2021/03/05 14:30:17;;;;;;;3.15;1.42;;;;;;;;;;5134774;27;20070;-75
2021/03/05 14:32:43;;;;;;;2.47;1.42;;;;;;;;;;5116615;27;20035;-75
2021/03/05 14:35:08;;;;;;;2.42;1.67;;;;;;;;;;5134600;27;20547;-75
2021/03/05 14:37:34;;;;;;;4.03;1.48;;;;;;;;;;5134599;27;20039;-75
2021/03/05 14:39:59;;;;;;;3.97;1.45;;;;;;;;;;5134855;27;20392;-75